Time;durP1;ratioP1;P1;durP2;ratioP2;P2;SDS_P1;SDS_P2;PMS_P1;PMS_P2;Temp;Humidity;BMP_temperature;BMP_pressure;BME280_temperature;BME280_humidity;BME280_pressure;Samples;Min_cycle;Max_cycle;Signal;HPM_P1;HPM_P2
2024/03/22 00:01:50;;;;;;;38.22;24.10;;;;;;;11.35;100.00;102021.59;5096894;28;20056;-67
2024/03/22 00:04:38;;;;;;;39.88;27.05;;;;;;;11.35;100.00;102016.13;5082677;28;20063;-67
2024/03/22 00:07:25;;;;;;;37.25;25.08;;;;;;;11.36;100.00;102006.06;5107899;28;20122;-67
2024/03/22 00:10:13;;;;;;;38.55;25.80;;;;;;;11.36;100.00;102015.09;5110751;28;20051;-67
2024/03/22 00:13:00;;;;;;;40.00;26.60;;;;;;;11.38;100.00;102004.75;5089869;28;20047;-67
2024/03/22 00:15:47;;;;;;;43.22;27.88;;;;;;;11.38;100.00;102002.03;5092950;28;20494;-66
2024/03/22 00:18:34;;;;;;;41.25;27.63;;;;;;;11.38;100.00;102007.50;5086725;28;20083;-66
2024/03/22 00:21:22;;;;;;;39.25;27.70;;;;;;;11.38;100.00;101993.84;5110260;28;20078;-65
2024/03/22 00:24:09;;;;;;;41.03;27.60;;;;;;;11.38;100.00;101996.56;5068832;28;20092;-66
2024/03/22 00:26:56;;;;;;;36.53;25.88;;;;;;;11.39;100.00;101992.75;5089220;28;20067;-66
2024/03/22 00:29:43;;;;;;;40.75;26.73;;;;;;;11.39;100.00;101990.03;5093980;28;20059;-67
2024/03/22 00:32:30;;;;;;;38.22;27.60;;;;;;;11.39;100.00;101981.84;5076476;28;20496;-67
2024/03/22 00:35:17;;;;;;;41.30;27.83;;;;;;;11.41;100.00;101978.88;5078668;28;20075;-66
2024/03/22 00:38:04;;;;;;;39.83;26.75;;;;;;;11.42;100.00;101970.44;5090216;28;20497;-67
2024/03/22 00:40:51;;;;;;;40.47;27.05;;;;;;;11.43;100.00;101963.09;5096354;28;20036;-67
2024/03/22 00:43:38;;;;;;;34.10;24.13;;;;;;;11.44;100.00;101957.38;5096113;28;20059;-67
2024/03/22 00:46:25;;;;;;;41.42;28.35;;;;;;;11.46;100.00;101951.69;5094450;28;20448;-66
2024/03/22 00:49:12;;;;;;;36.35;24.45;;;;;;;11.46;100.00;101949.78;5083157;28;20079;-65
2024/03/22 00:51:59;;;;;;;41.30;26.73;;;;;;;11.46;100.00;101936.13;5096831;28;20071;-66
2024/03/22 00:54:46;;;;;;;33.70;24.17;;;;;;;11.48;100.00;101931.25;5093908;28;20093;-66
2024/03/22 00:57:33;;;;;;;39.92;28.10;;;;;;;11.47;100.00;101924.16;5048681;28;20072;-67
2024/03/22 01:00:20;;;;;;;38.28;26.80;;;;;;;11.47;100.00;101921.41;5109061;28;20130;-65
2024/03/22 01:03:09;;;;;;;38.35;26.17;;;;;;;11.47;100.00;101905.03;5109087;28;20079;-67
2024/03/22 01:05:57;;;;;;;38.78;24.75;;;;;;;11.48;100.00;101908.59;5090333;28;20040;-67
2024/03/22 01:08:44;;;;;;;39.17;26.48;;;;;;;11.50;100.00;101901.81;5079949;28;20466;-66
2024/03/22 01:11:31;;;;;;;38.25;26.30;;;;;;;11.49;100.00;101896.59;5079605;28;20130;-66
2024/03/22 01:14:18;;;;;;;37.92;25.73;;;;;;;11.49;100.00;101899.31;5038420;28;20048;-66
2024/03/22 01:17:05;;;;;;;36.47;25.00;;;;;;;11.49;100.00;101889.22;5095280;28;20126;-67
2024/03/22 01:19:52;;;;;;;41.17;27.55;;;;;;;11.47;100.00;101880.47;5079379;28;20097;-66
2024/03/22 01:22:40;;;;;;;41.05;26.75;;;;;;;11.48;100.00;101892.22;5069973;28;20119;-66
2024/03/22 01:25:28;;;;;;;38.35;26.90;;;;;;;11.48;100.00;101897.69;5112236;28;20071;-68
2024/03/22 01:28:15;;;;;;;35.22;25.63;;;;;;;11.48;100.00;101906.69;5081477;28;20055;-67
2024/03/22 01:31:02;;;;;;;36.10;24.48;;;;;;;11.48;100.00;101895.78;5052463;28;20044;-67
2024/03/22 01:33:49;;;;;;;39.15;26.13;;;;;;;11.48;100.00;101887.59;5065585;28;20070;-67
2024/03/22 01:36:36;;;;;;;39.45;26.27;;;;;;;11.49;100.00;101877.50;5080560;28;20053;-67
2024/03/22 01:39:23;;;;;;;35.53;25.90;;;;;;;11.48;100.00;101871.22;5078534;28;20530;-67
2024/03/22 01:42:10;;;;;;;36.70;25.85;;;;;;;11.48;100.00;101860.28;5092356;28;20500;-66
2024/03/22 01:44:57;;;;;;;36.85;26.67;;;;;;;11.47;100.00;101855.91;5096641;28;20063;-66
2024/03/22 01:47:44;;;;;;;30.92;22.00;;;;;;;11.50;100.00;101849.97;5075502;28;20079;-66
2024/03/22 01:50:31;;;;;;;35.35;25.60;;;;;;;11.49;100.00;101856.47;5099244;28;20055;-67
2024/03/22 01:53:18;;;;;;;33.60;25.38;;;;;;;11.49;100.00;101861.94;5110349;28;20058;-67
2024/03/22 01:56:06;;;;;;;37.50;25.92;;;;;;;11.49;100.00;101859.19;5111445;28;20097;-67
2024/03/22 01:58:54;;;;;;;36.42;24.92;;;;;;;11.49;100.00;101872.84;5098955;28;20119;-68
2024/03/22 02:01:41;;;;;;;33.53;25.77;;;;;;;11.48;100.00;101865.75;5079038;28;20123;-67
2024/03/22 02:04:28;;;;;;;34.08;24.70;;;;;;;11.48;100.00;101863.03;5110650;28;20124;-67
2024/03/22 02:07:15;;;;;;;34.75;25.63;;;;;;;11.48;100.00;101865.75;5085032;28;20047;-67
2024/03/22 02:10:02;;;;;;;35.25;25.35;;;;;;;11.50;100.00;101862.78;5097581;28;20048;-67
2024/03/22 02:12:49;;;;;;;32.42;23.55;;;;;;;11.51;100.00;101856.22;5093676;28;20063;-67
2024/03/22 02:15:36;;;;;;;32.17;24.05;;;;;;;11.50;100.00;101849.97;5103727;28;20040;-67
2024/03/22 02:18:23;;;;;;;35.08;25.70;;;;;;;11.49;100.00;101845.56;5078282;28;20048;-66
2024/03/22 02:21:10;;;;;;;34.30;24.60;;;;;;;11.51;100.00;101853.50;5079721;28;20523;-67
2024/03/22 02:23:57;;;;;;;33.50;23.88;;;;;;;11.50;100.00;101851.88;5071452;28;20085;-67
2024/03/22 02:26:44;;;;;;;33.35;25.25;;;;;;;11.50;100.00;101851.88;5085877;28;20430;-67
2024/03/22 02:29:31;;;;;;;34.67;25.05;;;;;;;11.49;100.00;101851.00;5069092;28;20079;-67
2024/03/22 02:32:18;;;;;;;34.42;24.13;;;;;;;11.49;100.00;101845.56;5092366;28;20508;-66
2024/03/22 02:35:05;;;;;;;35.03;24.60;;;;;;;11.50;100.00;101840.94;5095349;28;20063;-67
2024/03/22 02:37:52;;;;;;;33.72;23.80;;;;;;;11.51;100.00;101839.84;5062951;28;20467;-66
2024/03/22 02:40:39;;;;;;;36.15;24.73;;;;;;;11.51;100.00;101837.94;5091224;28;20060;-66
2024/03/22 02:43:26;;;;;;;30.05;22.48;;;;;;;11.52;100.00;101839.63;5099804;28;20055;-67
2024/03/22 02:46:13;;;;;;;34.03;23.70;;;;;;;11.52;100.00;101816.97;5096436;28;20140;-67
2024/03/22 02:49:00;;;;;;;33.38;24.30;;;;;;;11.51;100.00;101820.75;5110422;28;20117;-66
2024/03/22 02:51:47;;;;;;;32.63;24.48;;;;;;;11.51;100.00;101812.56;5098697;28;20122;-66
2024/03/22 02:54:34;;;;;;;36.40;25.50;;;;;;;11.52;100.00;101814.25;5096650;28;20123;-66
2024/03/22 02:57:21;;;;;;;33.08;22.95;;;;;;;11.50;100.00;101809.00;5109980;28;20078;-68
2024/03/22 03:00:09;;;;;;;34.60;22.70;;;;;;;11.50;100.00;101803.56;5108530;28;20052;-68
2024/03/22 03:02:56;;;;;;;33.53;24.63;;;;;;;11.50;100.00;101792.63;5095613;28;20036;-67
2024/03/22 03:05:44;;;;;;;33.30;22.52;;;;;;;11.51;100.00;101790.72;5096469;28;20081;-67
2024/03/22 03:08:31;;;;;;;30.85;22.52;;;;;;;11.50;100.00;101784.47;5087898;28;20047;-66
2024/03/22 03:11:17;;;;;;;35.33;24.40;;;;;;;11.49;100.00;101779.22;5077855;28;20098;-66
2024/03/22 03:14:04;;;;;;;34.03;24.30;;;;;;;11.47;100.00;101782.22;5110070;28;20503;-67
2024/03/22 03:16:51;;;;;;;36.35;25.38;;;;;;;11.47;100.00;101767.75;5078053;28;20496;-67
2024/03/22 03:19:38;;;;;;;34.47;23.52;;;;;;;11.47;100.00;101763.13;5077896;28;20055;-67
2024/03/22 03:22:25;;;;;;;32.40;24.73;;;;;;;11.46;100.00;101764.19;5091931;28;20075;-66
2024/03/22 03:25:12;;;;;;;29.60;22.95;;;;;;;11.44;100.00;101755.41;5106916;28;20472;-67
2024/03/22 03:27:59;;;;;;;31.40;21.52;;;;;;;11.44;100.00;101740.97;5063393;28;20048;-67
2024/03/22 03:30:46;;;;;;;33.30;23.17;;;;;;;11.43;100.00;101740.13;5076544;28;20075;-66
2024/03/22 03:33:33;;;;;;;31.23;23.55;;;;;;;11.42;100.00;101746.66;5090970;28;20488;-66
2024/03/22 03:36:20;;;;;;;30.33;22.60;;;;;;;11.41;100.00;101734.09;5087561;28;20047;-67
2024/03/22 03:39:08;;;;;;;30.90;24.00;;;;;;;11.41;100.00;101750.47;5095363;28;20048;-67
2024/03/22 03:41:55;;;;;;;33.17;23.23;;;;;;;11.39;100.00;101736.25;5091035;28;20068;-67
2024/03/22 03:44:42;;;;;;;30.50;21.70;;;;;;;11.40;100.00;101737.91;5076156;28;20075;-67
2024/03/22 03:47:29;;;;;;;30.48;23.25;;;;;;;11.38;100.00;101731.88;5102297;28;20067;-68
2024/03/22 03:50:16;;;;;;;30.15;21.52;;;;;;;11.40;100.00;101734.34;5090238;28;20101;-67
2024/03/22 03:53:03;;;;;;;30.73;23.50;;;;;;;11.38;100.00;101723.69;5090176;28;20124;-67
2024/03/22 03:55:50;;;;;;;33.97;23.27;;;;;;;11.38;100.00;101723.69;5076665;28;20072;-67
2024/03/22 03:58:37;;;;;;;32.42;23.35;;;;;;;11.37;100.00;101719.31;5108088;28;20147;-67
2024/03/22 04:01:24;;;;;;;31.35;23.35;;;;;;;11.38;100.00;101715.50;5108211;28;20052;-67
2024/03/22 04:04:11;;;;;;;33.75;23.10;;;;;;;11.37;100.00;101710.28;5098106;28;20070;-67
2024/03/22 04:06:58;;;;;;;32.65;23.30;;;;;;;11.36;100.00;101709.47;5108564;28;20075;-67
2024/03/22 04:09:45;;;;;;;32.88;23.60;;;;;;;11.35;100.00;101705.09;5091009;28;20519;-67
2024/03/22 04:12:32;;;;;;;31.30;21.52;;;;;;;11.35;100.00;101713.25;5094316;28;20081;-66
2024/03/22 04:15:19;;;;;;;36.83;22.60;;;;;;;11.34;100.00;101711.63;5110208;28;20066;-67
2024/03/22 04:18:06;;;;;;;31.42;22.08;;;;;;;11.33;100.00;101709.13;5109826;28;20061;-66
2024/03/22 04:20:58;;;;;;;31.70;21.77;;;;;;;11.32;100.00;101700.13;5075683;28;20052;-66
2024/03/22 04:23:44;;;;;;;32.00;21.20;;;;;;;11.33;100.00;101699.06;5089677;28;20076;-67
2024/03/22 04:26:32;;;;;;;30.52;21.67;;;;;;;11.33;100.00;101693.63;5104068;28;20079;-67
2024/03/22 04:29:19;;;;;;;31.95;23.20;;;;;;;11.33;100.00;101709.13;5079490;28;20127;-67
2024/03/22 04:32:06;;;;;;;29.63;21.38;;;;;;;11.32;100.00;101713.78;5065536;28;20212;-67
2024/03/22 04:34:54;;;;;;;29.48;21.30;;;;;;;11.31;100.00;101717.59;5076467;28;20047;-67
2024/03/22 04:37:41;;;;;;;29.67;21.77;;;;;;;11.30;100.00;101711.31;5078069;28;20047;-67
2024/03/22 04:40:30;;;;;;;35.78;22.45;;;;;;;11.30;100.00;101702.28;5087355;28;20048;-68
2024/03/22 04:43:17;;;;;;;31.60;22.08;;;;;;;11.30;100.00;101702.28;5108567;28;20153;-67
2024/03/22 04:46:04;;;;;;;28.35;21.25;;;;;;;11.30;100.00;101697.69;5086264;28;20089;-67
2024/03/22 04:48:51;;;;;;;26.15;20.38;;;;;;;11.32;100.00;101702.88;5099629;28;20135;-67
2024/03/22 04:51:38;;;;;;;29.38;22.52;;;;;;;11.29;100.00;101697.91;5095855;28;20044;-67
2024/03/22 04:54:25;;;;;;;29.05;21.15;;;;;;;11.28;100.00;101696.25;5101613;28;20422;-67
2024/03/22 04:57:12;;;;;;;29.38;21.00;;;;;;;11.27;100.00;101692.69;5100118;28;20081;-67
2024/03/22 04:59:59;;;;;;;29.88;20.13;;;;;;;11.27;100.00;101687.25;5098206;28;20094;-68
2024/03/22 05:02:46;;;;;;;25.98;19.73;;;;;;;11.28;100.00;101690.78;5091877;28;20086;-66
2024/03/22 05:05:34;;;;;;;30.00;20.67;;;;;;;11.27;100.00;101694.59;5100496;28;20549;-65
2024/03/22 05:08:21;;;;;;;28.48;20.10;;;;;;;11.26;100.00;101687.50;5087428;28;20082;-67
2024/03/22 05:11:08;;;;;;;32.17;21.23;;;;;;;11.26;100.00;101695.69;5080075;28;20040;-66
2024/03/22 05:13:55;;;;;;;29.50;20.23;;;;;;;11.26;100.00;101682.88;5093484;28;20515;-68
2024/03/22 05:16:42;;;;;;;28.35;20.90;;;;;;;11.24;100.00;101684.22;5114236;28;20396;-67
2024/03/22 05:19:29;;;;;;;26.75;19.85;;;;;;;11.25;100.00;101683.13;5113040;28;20464;-66
2024/03/22 05:22:16;;;;;;;30.83;21.60;;;;;;;11.25;100.00;101677.66;5079299;28;20442;-66
2024/03/22 05:25:04;;;;;;;27.98;20.13;;;;;;;11.22;100.00;101681.72;5071073;28;20048;-67
2024/03/22 05:27:51;;;;;;;28.58;19.38;;;;;;;11.21;100.00;101676.53;5071793;28;20090;-67
2024/03/22 05:30:38;;;;;;;30.70;20.73;;;;;;;11.18;100.00;101677.84;5098453;28;20071;-67
2024/03/22 05:33:25;;;;;;;29.77;20.13;;;;;;;11.18;100.00;101675.09;5085555;28;20484;-66
2024/03/22 05:36:12;;;;;;;29.77;20.30;;;;;;;11.18;100.00;101674.28;5084999;28;20058;-67
2024/03/22 05:38:59;;;;;;;28.00;19.10;;;;;;;11.19;100.00;101674.03;5095188;28;20060;-67
2024/03/22 05:41:46;;;;;;;24.85;17.27;;;;;;;11.19;100.00;101673.22;5108542;28;20082;-66
2024/03/22 05:44:33;;;;;;;30.83;19.63;;;;;;;11.16;100.00;101669.09;5098485;28;20056;-67
2024/03/22 05:47:20;;;;;;;26.15;18.25;;;;;;;11.16;100.00;101673.72;5112954;28;20059;-66
2024/03/22 05:50:09;;;;;;;29.10;20.50;;;;;;;11.14;100.00;101671.25;5081576;28;20040;-67
2024/03/22 05:52:56;;;;;;;28.75;19.50;;;;;;;11.16;100.00;101668.25;5067389;28;20509;-68
2024/03/22 05:55:43;;;;;;;31.77;22.52;;;;;;;11.12;100.00;101675.31;5093578;28;20079;-66
2024/03/22 05:58:30;;;;;;;31.20;22.15;;;;;;;11.09;100.00;101669.28;5093636;28;20044;-67
2024/03/22 06:01:17;;;;;;;30.25;20.95;;;;;;;11.08;100.00;101670.34;5087560;28;20449;-67
2024/03/22 06:04:06;;;;;;;32.30;21.65;;;;;;;11.07;100.00;101673.31;5073511;28;20054;-66
2024/03/22 06:06:53;;;;;;;27.83;19.98;;;;;;;11.10;100.00;101672.81;5048892;28;20094;-66
2024/03/22 06:09:45;;;;;;;27.13;19.02;;;;;;;11.09;100.00;101666.53;5090897;28;20501;-66
2024/03/22 06:12:33;;;;;;;26.13;17.70;;;;;;;11.12;100.00;101667.13;5095045;28;20036;-67
2024/03/22 06:15:21;;;;;;;30.55;19.48;;;;;;;11.12;100.00;101670.66;5111408;28;20075;-66
2024/03/22 06:18:08;;;;;;;26.45;18.38;;;;;;;11.13;100.00;101671.50;5097450;28;20071;-67
2024/03/22 06:20:55;;;;;;;27.65;20.17;;;;;;;11.13;100.00;101666.03;5091235;28;20452;-66
2024/03/22 06:23:42;;;;;;;26.80;17.08;;;;;;;11.15;100.00;101669.34;5100125;28;20491;-67
2024/03/22 06:26:29;;;;;;;26.50;18.88;;;;;;;11.11;100.00;101669.00;5109118;28;20062;-67
2024/03/22 06:29:16;;;;;;;28.55;20.52;;;;;;;11.08;100.00;101672.25;5114573;28;20046;-66
2024/03/22 06:32:05;;;;;;;29.25;19.42;;;;;;;11.09;100.00;101663.81;5090487;28;20061;-66
2024/03/22 06:34:52;;;;;;;24.08;17.38;;;;;;;11.09;100.00;101663.00;4757440;28;10000122;-68
2024/03/22 06:37:41;;;;;;;25.60;18.55;;;;;;;11.11;100.00;101665.47;5092019;28;20130;-67
2024/03/22 06:40:28;;;;;;;24.17;16.92;;;;;;;11.09;100.00;101665.72;5088519;28;20499;-67
2024/03/22 06:43:15;;;;;;;28.08;18.10;;;;;;;11.06;100.00;101663.47;5080956;28;20169;-66
2024/03/22 06:46:02;;;;;;;23.27;16.50;;;;;;;11.05;100.00;101659.13;5094835;28;20043;-68
2024/03/22 06:48:49;;;;;;;22.08;15.30;;;;;;;11.11;100.00;101655.38;5073505;28;20121;-68
2024/03/22 06:51:36;;;;;;;29.67;18.20;;;;;;;11.08;100.00;101653.16;5102726;28;20051;-68
2024/03/22 06:54:23;;;;;;;25.27;17.08;;;;;;;11.09;100.00;101658.38;5105298;28;20051;-68
2024/03/22 06:57:11;;;;;;;24.23;16.60;;;;;;;11.07;100.00;101646.06;5108351;28;20055;-67
2024/03/22 06:59:57;;;;;;;22.73;15.95;;;;;;;11.02;100.00;101651.44;5086303;28;20518;-68
2024/03/22 07:02:45;;;;;;;23.58;16.33;;;;;;;11.02;100.00;101646.81;5055262;28;20096;-70
2024/03/22 07:05:32;;;;;;;20.98;15.25;;;;;;;11.02;100.00;101657.72;5051891;28;20044;-72
2024/03/22 07:08:19;;;;;;;22.85;15.73;;;;;;;11.04;100.00;101650.13;5092702;28;20044;-72
2024/03/22 07:11:06;;;;;;;22.77;15.25;;;;;;;11.05;100.00;101651.75;5079409;28;20138;-72
2024/03/22 07:13:53;;;;;;;23.55;15.85;;;;;;;11.07;100.00;101652.31;5083777;28;20226;-71
2024/03/22 07:16:40;;;;;;;22.50;14.85;;;;;;;11.09;100.00;101649.38;5064326;28;20146;-70
2024/03/22 07:19:28;;;;;;;20.52;14.57;;;;;;;11.13;100.00;101649.66;5111617;27;20446;-70
2024/03/22 07:22:15;;;;;;;23.98;16.10;;;;;;;11.15;100.00;101647.53;5089626;27;20122;-70
2024/03/22 07:25:02;;;;;;;19.45;13.32;;;;;;;11.19;100.00;101652.22;5076932;28;20405;-70
2024/03/22 07:27:49;;;;;;;24.33;16.45;;;;;;;11.21;100.00;101657.44;5068939;28;20505;-72
2024/03/22 07:30:37;;;;;;;22.05;15.18;;;;;;;11.24;100.00;101662.38;5093556;28;20105;-70
2024/03/22 07:33:24;;;;;;;23.77;16.05;;;;;;;11.24;100.00;101656.94;5097762;28;20044;-70
2024/03/22 07:36:11;;;;;;;22.52;15.82;;;;;;;11.22;100.00;101656.34;5096574;28;20458;-70
2024/03/22 07:38:58;;;;;;;24.38;16.60;;;;;;;11.21;100.00;101658.25;5081392;28;20039;-70
2024/03/22 07:41:45;;;;;;;21.20;15.10;;;;;;;11.24;100.00;101656.94;5057103;28;20044;-70
2024/03/22 07:44:32;;;;;;;20.90;14.82;;;;;;;11.30;100.00;101655.91;5066092;28;20047;-70
2024/03/22 07:47:19;;;;;;;25.33;17.35;;;;;;;11.30;100.00;101658.63;5037386;28;20047;-70
2024/03/22 07:50:07;;;;;;;25.85;19.13;;;;;;;11.27;100.00;101661.88;5065254;28;20130;-70
2024/03/22 07:52:54;;;;;;;24.00;18.48;;;;;;;11.28;100.00;101668.97;5086975;28;20032;-71
2024/03/22 07:55:41;;;;;;;23.83;18.25;;;;;;;11.29;100.00;101660.53;5081510;28;20043;-71
2024/03/22 07:58:28;;;;;;;24.15;18.40;;;;;;;11.29;100.00;101655.09;5095891;28;20063;-71
2024/03/22 08:01:17;;;;;;;24.33;18.05;;;;;;;11.30;100.00;101656.75;5095878;28;20058;-70
2024/03/22 08:04:05;;;;;;;25.10;19.73;;;;;;;11.32;100.00;101652.94;5081826;28;20126;-71
2024/03/22 08:06:52;;;;;;;22.42;17.63;;;;;;;11.33;100.00;101644.50;5082372;28;20040;-70
2024/03/22 08:09:39;;;;;;;25.45;19.35;;;;;;;11.33;100.00;101652.69;5083601;28;20464;-70
2024/03/22 08:12:26;;;;;;;27.30;20.38;;;;;;;11.30;100.00;101650.44;5091397;28;20074;-71
2024/03/22 08:15:13;;;;;;;20.85;15.85;;;;;;;11.32;100.00;101640.09;5082028;28;20055;-73
2024/03/22 08:18:00;;;;;;;25.42;19.13;;;;;;;11.27;100.00;101650.97;5094335;28;20040;-71
2024/03/22 08:20:47;;;;;;;24.45;18.20;;;;;;;11.28;100.00;101647.13;5065282;28;20050;-70
2024/03/22 08:23:34;;;;;;;24.75;18.92;;;;;;;11.29;100.00;101648.81;5049117;28;20437;-70
2024/03/22 08:26:22;;;;;;;26.30;20.15;;;;;;;11.33;100.00;101655.41;5075344;28;20040;-71
2024/03/22 08:29:09;;;;;;;25.67;21.75;;;;;;;11.23;100.00;101655.25;5069362;28;20400;-70
2024/03/22 08:31:56;;;;;;;31.08;23.70;;;;;;;11.17;100.00;101656.28;5070685;28;20044;-70
2024/03/22 08:34:43;;;;;;;29.58;22.77;;;;;;;11.15;100.00;101652.97;5062438;28;20461;-72
2024/03/22 08:37:30;;;;;;;28.73;22.95;;;;;;;11.13;100.00;101655.94;5036234;28;20043;-70
2024/03/22 08:40:17;;;;;;;28.08;22.75;;;;;;;11.09;100.00;101655.63;5053903;28;20040;-71
2024/03/22 08:43:07;;;;;;;28.30;23.75;;;;;;;11.11;100.00;101646.38;5096159;28;20043;-72
2024/03/22 08:45:54;;;;;;;27.25;23.08;;;;;;;11.11;100.00;101632.72;5083027;28;20047;-74
2024/03/22 08:48:41;;;;;;;28.77;23.70;;;;;;;11.16;100.00;101638.25;5065353;28;20044;-74
2024/03/22 08:51:28;;;;;;;28.45;23.85;;;;;;;11.17;100.00;101639.91;5061283;28;20048;-74
2024/03/22 08:54:15;;;;;;;29.77;23.15;;;;;;;11.15;100.00;101628.44;5067181;28;20048;-73
2024/03/22 08:57:02;;;;;;;28.83;22.65;;;;;;;11.16;100.00;101632.78;5063139;28;20048;-77
2024/03/22 08:59:49;;;;;;;27.98;23.08;;;;;;;11.17;100.00;101635.28;5061537;28;20480;-76
2024/03/22 09:02:36;;;;;;;29.33;23.17;;;;;;;11.16;100.00;101628.19;5101425;28;20040;-77
2024/03/22 09:05:24;;;;;;;26.35;20.98;;;;;;;11.22;100.00;101631.81;5086028;28;20052;-73
2024/03/22 09:08:11;;;;;;;26.63;20.33;;;;;;;11.27;100.00;101629.13;5096265;28;20070;-75
2024/03/22 09:10:58;;;;;;;24.35;20.48;;;;;;;11.26;100.00;101641.13;5069957;28;20090;-73
2024/03/22 09:13:49;;;;;;;26.95;21.15;;;;;;;11.27;100.00;101631.88;5052810;28;20427;-74
2024/03/22 09:16:36;;;;;;;25.40;19.45;;;;;;;11.28;100.00;101633.50;5061821;28;20044;-74
2024/03/22 09:19:23;;;;;;;24.70;19.70;;;;;;;11.26;100.00;101641.13;5068369;28;20035;-72
2024/03/22 09:22:11;;;;;;;26.70;19.25;;;;;;;11.27;100.00;101632.69;5081767;28;20303;-73
2024/03/22 09:24:58;;;;;;;24.92;19.75;;;;;;;11.33;100.00;101633.59;5063297;28;20103;-73
2024/03/22 09:27:45;;;;;;;25.48;20.23;;;;;;;11.34;100.00;101626.22;5078407;28;20055;-75
2024/03/22 09:30:32;;;;;;;26.65;20.05;;;;;;;11.36;100.00;101633.06;5062442;28;20047;-74
2024/03/22 09:33:20;;;;;;;24.48;20.67;;;;;;;11.34;100.00;101621.59;5085491;28;20062;-73
2024/03/22 09:36:07;;;;;;;27.33;21.42;;;;;;;11.33;100.00;101628.13;5099166;28;20046;-74
2024/03/22 09:38:54;;;;;;;25.42;19.80;;;;;;;11.32;100.00;101629.19;5071444;28;20480;-74
2024/03/22 09:41:44;;;;;;;22.35;16.95;;;;;;;11.33;100.00;101619.94;5070429;28;20142;-74
2024/03/22 09:44:32;;;;;;;22.50;17.20;;;;;;;11.28;100.00;101619.84;5053311;28;20433;-74
2024/03/22 09:47:21;;;;;;;23.23;17.23;;;;;;;11.28;100.00;101612.53;5078179;28;20044;-71
2024/03/22 09:50:08;;;;;;;21.33;17.23;;;;;;;11.28;100.00;101615.25;5051241;28;20044;-73
2024/03/22 09:52:57;;;;;;;29.30;17.33;;;;;;;11.29;100.00;101605.97;5065549;28;20129;-74
2024/03/22 09:55:45;;;;;;;24.08;16.90;;;;;;;11.31;100.00;101600.28;5080006;28;20080;-73
2024/03/22 09:58:32;;;;;;;22.33;16.73;;;;;;;11.28;100.00;101604.34;5065511;28;20093;-75
2024/03/22 10:01:19;;;;;;;20.30;16.23;;;;;;;11.27;100.00;101594.50;5073106;28;20120;-74
2024/03/22 10:04:06;;;;;;;24.33;16.20;;;;;;;11.28;100.00;101593.44;5050639;28;20047;-73
2024/03/22 10:06:53;;;;;;;20.67;16.13;;;;;;;11.30;100.00;101602.19;5066610;28;20040;-73
2024/03/22 10:09:40;;;;;;;21.30;16.80;;;;;;;11.33;100.00;101598.13;5065050;28;20040;-75
2024/03/22 10:12:27;;;;;;;22.17;15.90;;;;;;;11.34;100.00;101586.13;5070231;28;20048;-74
2024/03/22 10:15:15;;;;;;;20.98;15.63;;;;;;;11.39;100.00;101591.63;5098821;28;20071;-73
2024/03/22 10:18:03;;;;;;;24.05;15.63;;;;;;;11.37;100.00;101587.50;5067578;28;20079;-74
2024/03/22 10:21:06;;;;;;;23.92;15.45;;;;;;;11.36;100.00;101589.44;5074986;28;20051;-73
2024/03/22 10:23:54;;;;;;;22.88;15.35;;;;;;;11.33;100.00;101587.22;5056631;28;20126;-74
2024/03/22 10:26:41;;;;;;;20.33;14.25;;;;;;;11.35;100.00;101590.47;5064731;28;20073;-73
2024/03/22 10:29:28;;;;;;;23.48;15.35;;;;;;;11.35;100.00;101590.47;5066271;28;20051;-73
2024/03/22 10:32:16;;;;;;;21.08;14.15;;;;;;;11.36;100.00;101588.59;5052254;28;20052;-72
2024/03/22 10:35:05;;;;;;;19.45;13.40;;;;;;;11.39;100.00;101590.81;5065463;28;20208;-72
2024/03/22 10:37:53;;;;;;;18.38;12.68;;;;;;;11.40;100.00;101590.56;5051273;28;20059;-72
2024/03/22 10:40:44;;;;;;;20.75;14.18;;;;;;;11.39;100.00;101594.38;5041964;28;20050;-73
2024/03/22 10:43:31;;;;;;;18.83;13.00;;;;;;;11.35;100.00;101603.31;5083356;27;20043;-73
2024/03/22 10:46:20;;;;;;;21.95;14.20;;;;;;;11.27;100.00;101590.94;5099953;27;20565;-75
2024/03/22 10:49:08;;;;;;;21.52;13.90;;;;;;;11.23;100.00;101587.91;5099573;28;20124;-75
2024/03/22 10:51:58;;;;;;;25.20;14.68;;;;;;;11.22;100.00;101591.69;5069497;28;20098;-72
2024/03/22 10:54:46;;;;;;;19.67;13.95;;;;;;;11.21;100.00;101591.97;5064350;28;20044;-73
2024/03/22 10:57:36;;;;;;;19.90;13.25;;;;;;;11.19;100.00;101596.84;5063985;28;20070;-73
2024/03/22 11:00:36;;;;;;;20.20;13.50;;;;;;;11.20;100.00;101590.31;5069290;28;20179;-72
2024/03/22 11:03:25;;;;;;;23.48;12.10;;;;;;;11.23;100.00;101584.34;5071883;28;20507;-72
2024/03/22 11:06:12;;;;;;;20.70;11.90;;;;;;;11.25;100.00;101584.91;5056771;28;20132;-72
2024/03/22 11:09:05;;;;;;;19.95;11.20;;;;;;;11.34;100.00;101586.13;5072262;28;20125;-73
2024/03/22 11:11:53;;;;;;;15.68;10.60;;;;;;;11.32;100.00;101588.28;5072125;28;20496;-73
2024/03/22 11:14:40;;;;;;;20.80;11.18;;;;;;;11.27;100.00;101580.84;5067718;28;20496;-74
2024/03/22 11:17:27;;;;;;;19.00;11.40;;;;;;;11.21;100.00;101591.97;5073662;28;20048;-75
2024/03/22 11:20:18;;;;;;;20.52;11.82;;;;;;;11.07;100.00;101586.06;5081164;28;20077;-74
2024/03/22 11:23:06;;;;;;;17.75;12.07;;;;;;;11.03;100.00;101585.72;5070267;28;20090;-75
2024/03/22 11:25:53;;;;;;;20.50;11.88;;;;;;;10.97;100.00;101581.28;5083842;28;20044;-76
2024/03/22 11:28:41;;;;;;;19.13;12.00;;;;;;;10.94;100.00;101578.22;5069274;28;20070;-77
2024/03/22 11:31:28;;;;;;;20.60;11.18;;;;;;;10.94;100.00;101587.22;5051985;28;20105;-76
2024/03/22 11:34:15;;;;;;;20.33;11.15;;;;;;;10.93;100.00;101585.59;5066776;28;20071;-77
2024/03/22 11:37:03;;;;;;;19.48;11.02;;;;;;;10.91;100.00;101579.56;5076592;28;20613;-76
2024/03/22 11:39:50;;;;;;;19.38;11.65;;;;;;;10.89;100.00;101587.16;5081635;28;20047;-76
2024/03/22 11:42:41;;;;;;;18.83;11.05;;;;;;;10.88;100.00;101577.34;5064248;28;20051;-76
2024/03/22 11:45:28;;;;;;;17.02;10.95;;;;;;;10.89;100.00;101573.53;5069693;28;20040;-75
2024/03/22 11:48:16;;;;;;;15.45;9.75;;;;;;;10.95;100.00;101578.00;5081149;28;20082;-75
2024/03/22 11:51:04;;;;;;;17.48;9.85;;;;;;;10.98;100.00;101580.22;5080472;28;20519;-76
2024/03/22 11:53:53;;;;;;;16.30;9.00;;;;;;;11.01;100.00;101573.41;5095958;28;20047;-75
2024/03/22 11:56:41;;;;;;;14.90;8.50;;;;;;;11.00;100.00;101560.88;5055164;28;20048;-75
2024/03/22 11:59:30;;;;;;;15.57;8.80;;;;;;;10.99;100.00;101557.34;5050345;28;20507;-75
2024/03/22 12:02:17;;;;;;;14.32;8.50;;;;;;;10.99;100.00;101557.34;5062530;28;20510;-76
2024/03/22 12:05:05;;;;;;;15.43;8.60;;;;;;;11.00;100.00;101558.16;5062805;28;20052;-76
2024/03/22 12:07:52;;;;;;;12.75;8.30;;;;;;;10.98;100.00;101550.22;5062952;28;20048;-76
2024/03/22 12:10:39;;;;;;;13.32;8.23;;;;;;;10.99;100.00;101545.56;5072761;28;20403;-76
2024/03/22 12:13:26;;;;;;;11.18;7.35;;;;;;;10.98;100.00;101530.31;5094825;28;20048;-76
2024/03/22 12:16:13;;;;;;;13.75;7.97;;;;;;;10.98;100.00;101522.94;5082098;28;20044;-76
2024/03/22 12:19:00;;;;;;;13.32;8.70;;;;;;;10.90;100.00;101526.13;5082871;28;20296;-76
2024/03/22 12:21:47;;;;;;;13.07;8.20;;;;;;;10.88;100.00;101517.38;5057380;28;20048;-76
2024/03/22 12:24:35;;;;;;;11.73;8.05;;;;;;;10.86;100.00;101520.34;5049379;28;20105;-76
2024/03/22 12:27:22;;;;;;;14.35;8.52;;;;;;;10.84;100.00;101513.50;5076554;28;20092;-75
2024/03/22 12:30:10;;;;;;;11.55;7.05;;;;;;;10.85;100.00;101502.34;5082074;28;20473;-76
2024/03/22 12:32:57;;;;;;;13.57;7.75;;;;;;;10.89;100.00;101499.91;5083579;28;20054;-76